Time;durP1;ratioP1;P1;durP2;ratioP2;P2;SDS_P1;SDS_P2;PMS_P1;PMS_P2;Temp;Humidity;BMP_temperature;BMP_pressure;BME280_temperature;BME280_humidity;BME280_pressure;Samples;Min_cycle;Max_cycle;Signal;HPM_P1;HPM_P2
2022/03/27 00:00:00;;;;;;;;;;;;;;;3.61;42.31;99042.55;1706708;83;21182;-63
2022/03/27 00:02:33;;;;;;;;;;;;;;;3.53;42.70;99045.86;1706466;84;20122;-64
2022/03/27 00:05:06;;;;;;;;;;;;;;;3.48;43.01;99048.61;1718298;82;20120;-64
2022/03/27 00:07:37;;;;;;;;;;;;;;;3.42;43.40;99056.54;1708720;82;20121;-64
2022/03/27 00:10:08;;;;;;;;;;;;;;;3.35;43.07;99050.61;1706624;84;20110;-65
2022/03/27 00:12:38;;;;;;;;;;;;;;;3.27;43.17;99066.39;1685220;84;21216;-65
2022/03/27 00:15:09;;;;;;;;;;;;;;;3.22;43.57;99066.41;1705708;84;20122;-64
2022/03/27 00:17:37;;;;;;;;;;;;;;;3.15;42.51;99060.48;1702854;84;20456;-63
2022/03/27 00:20:09;;;;;;;;;;;;;;;3.09;42.44;99071.63;1706643;83;20146;-64
2022/03/27 00:22:39;;;;;;;;;;;;;;;3.05;41.77;99066.49;1706237;83;20098;-64
2022/03/27 00:25:14;;;;;;;;;;;;;;;3.02;40.67;99073.28;1679679;85;20113;-65
2022/03/27 00:27:42;;;;;;;;;;;;;;;3.02;41.35;99071.11;1691396;85;20132;-66
2022/03/27 00:30:12;;;;;;;;;;;;;;;2.98;41.93;99089.30;1677246;85;20176;-67
2022/03/27 00:32:43;;;;;;;;;;;;;;;2.92;40.92;99078.20;1690976;85;20105;-66
2022/03/27 00:35:15;;;;;;;;;;;;;;;2.88;41.67;99097.49;1688031;85;20137;-66
2022/03/27 00:37:48;;;;;;;;;;;;;;;2.83;41.66;99098.05;1691654;85;21270;-66
2022/03/27 00:40:22;;;;;;;;;;;;;;;2.77;41.35;99080.99;1690627;84;20418;-66
2022/03/27 00:42:55;;;;;;;;;;;;;;;2.74;41.76;99107.83;1691550;85;20425;-65
2022/03/27 00:45:29;;;;;;;;;;;;;;;2.69;42.24;99109.20;1691427;84;20121;-66
2022/03/27 00:48:07;;;;;;;;;;;;;;;2.65;41.80;99099.45;1671541;85;20440;-66
2022/03/27 00:50:35;;;;;;;;;;;;;;;2.61;41.67;99110.57;1690418;85;21128;-66
2022/03/27 00:53:06;;;;;;;;;;;;;;;2.58;42.13;99126.02;1671599;85;20102;-67
2022/03/27 00:55:37;;;;;;;;;;;;;;;2.53;42.25;99121.97;1690754;85;20101;-67
2022/03/27 00:58:04;;;;;;;;;;;;;;;2.48;42.03;99106.52;1691577;83;20086;-67
2022/03/27 01:00:41;;;;;;;;;;;;;;;2.45;42.44;99132.00;1691591;85;20491;-67
2022/03/27 01:03:17;;;;;;;;;;;;;;;2.40;42.10;99129.29;1671491;85;20113;-67
2022/03/27 01:05:48;;;;;;;;;;;;;;;2.37;42.45;99129.30;1637876;86;20511;-67
2022/03/27 01:11:23;;;;;;;;;;;;;;;2.31;42.62;99129.84;1691502;85;20133;-66
2022/03/27 01:13:57;;;;;;;;;;;;;;;2.23;42.87;99137.72;1691539;85;20177;-67
2022/03/27 01:16:47;;;;;;;;;;;;;;;2.17;43.18;99146.92;1716864;82;20083;-67
2022/03/27 01:19:16;;;;;;;;;;;;;;;2.13;43.16;99146.66;1734564;82;20096;-67
2022/03/27 01:21:47;;;;;;;;;;;;;;;2.08;43.32;99147.20;1735672;82;20123;-67
2022/03/27 01:24:20;;;;;;;;;;;;;;;2.03;43.09;99148.00;1735571;82;20462;-66
2022/03/27 01:26:48;;;;;;;;;;;;;;;2.04;43.40;99155.58;1716420;82;20100;-67
2022/03/27 01:29:33;;;;;;;;;;;;;;;2.03;43.36;99157.48;1735376;82;21286;-67
2022/03/27 01:31:47;;;;;;;;;;;;;;;1.98;43.46;99158.28;1699644;82;20130;-67
2022/03/27 01:34:19;;;;;;;;;;;;;;;1.94;43.79;99162.61;1671346;85;20127;-67
2022/03/27 01:36:51;;;;;;;;;;;;;;;1.89;43.71;99168.02;1688108;85;20151;-67
2022/03/27 01:39:21;;;;;;;;;;;;;;;1.85;43.97;99162.05;1691462;85;20127;-67
2022/03/27 01:41:51;;;;;;;;;;;;;;;1.80;44.20;99160.14;1691501;85;21210;-67
2022/03/27 01:44:22;;;;;;;;;;;;;;;1.77;44.29;99166.09;1687665;84;20158;-67
2022/03/27 01:46:52;;;;;;;;;;;;;;;1.73;44.33;99179.10;1691863;85;20466;-68
2022/03/27 01:49:24;;;;;;;;;;;;;;;1.70;44.45;99180.98;1691621;84;20118;-68
2022/03/27 01:51:56;;;;;;;;;;;;;;;1.67;44.54;99189.09;1691358;85;20103;-67
2022/03/27 01:54:26;;;;;;;;;;;;;;;1.65;44.21;99189.36;1691775;85;21228;-67
2022/03/27 01:57:06;;;;;;;;;;;;;;;1.65;44.51;99185.30;1691621;85;20114;-66
2022/03/27 01:59:39;;;;;;;;;;;;;;;1.63;44.57;99198.82;1671207;85;20178;-66
2022/03/27 02:02:10;;;;;;;;;;;;;;;1.58;44.51;99191.50;1691165;84;20119;-67
2022/03/27 02:04:44;;;;;;;;;;;;;;;1.55;45.23;99181.75;1691495;84;20143;-66
2022/03/27 02:07:13;;;;;;;;;;;;;;;1.52;45.01;99202.03;1690504;84;21110;-66
2022/03/27 02:09:45;;;;;;;;;;;;;;;1.50;45.32;99210.95;1671895;85;20231;-66
2022/03/27 02:12:21;;;;;;;;;;;;;;;1.49;45.32;99213.92;1690639;85;20175;-66
2022/03/27 02:14:56;;;;;;;;;;;;;;;1.44;45.13;99204.42;1691739;85;20139;-66
2022/03/27 02:17:33;;;;;;;;;;;;;;;1.41;45.52;99211.72;1690601;84;20154;-66
2022/03/27 02:20:01;;;;;;;;;;;;;;;1.38;45.68;99220.36;1691584;85;21123;-67
2022/03/27 02:22:30;;;;;;;;;;;;;;;1.34;45.89;99220.07;1691014;84;20115;-67
2022/03/27 02:25:05;;;;;;;;;;;;;;;1.32;45.97;99223.58;1671264;85;20199;-67
2022/03/27 02:27:38;;;;;;;;;;;;;;;1.29;46.25;99223.56;1691467;84;20186;-66
2022/03/27 02:30:07;;;;;;;;;;;;;;;1.26;46.46;99228.68;1690861;85;20166;-66
2022/03/27 02:32:35;;;;;;;;;;;;;;;1.21;46.68;99224.06;1691734;85;21157;-67
2022/03/27 02:35:10;;;;;;;;;;;;;;;1.18;47.03;99225.94;1691603;85;20115;-68
2022/03/27 02:37:37;;;;;;;;;;;;;;;1.13;47.32;99231.34;1691230;85;20126;-67
2022/03/27 02:40:07;;;;;;;;;;;;;;;1.12;47.48;99235.12;1691351;85;20534;-68
2022/03/27 02:42:45;;;;;;;;;;;;;;;1.12;47.66;99234.31;1671748;85;20150;-67
2022/03/27 02:45:13;;;;;;;;;;;;;;;1.10;47.74;99244.57;1691060;84;20150;-67
2022/03/27 02:47:42;;;;;;;;;;;;;;;1.11;47.86;99245.66;1671590;85;20114;-68
2022/03/27 02:50:10;;;;;;;;;;;;;;;1.11;48.38;99242.95;1691394;85;20454;-68
2022/03/27 02:52:43;;;;;;;;;;;;;;;1.15;48.91;99250.01;1690998;84;20470;-68
2022/03/27 02:55:18;;;;;;;;;;;;;;;1.19;48.91;99262.72;1685556;84;20174;-66
2022/03/27 02:57:46;;;;;;;;;;;;;;;1.23;49.79;99254.36;1672012;85;20559;-66
2022/03/27 03:00:23;;;;;;;;;;;;;;;1.27;50.86;99250.59;1691513;85;20127;-66
2022/03/27 03:02:57;;;;;;;;;;;;;;;1.32;51.30;99283.89;1671227;85;20514;-68
2022/03/27 03:05:24;;;;;;;;;;;;;;;1.36;53.22;99282.02;1670044;85;20489;-67
2022/03/27 03:07:57;;;;;;;;;;;;;;;1.33;55.54;99290.92;1691182;84;20166;-67
2022/03/27 03:10:26;;;;;;;;;;;;;;;1.24;55.21;99283.03;1691508;85;20127;-67
2022/03/27 03:12:55;;;;;;;;;;;;;;;1.09;53.82;99275.38;1691543;85;20127;-66
2022/03/27 03:15:24;;;;;;;;;;;;;;;0.97;53.22;99281.79;1691509;85;20147;-67
2022/03/27 03:17:56;;;;;;;;;;;;;;;0.88;52.48;99281.17;1684747;82;20141;-67
2022/03/27 03:20:27;;;;;;;;;;;;;;;0.83;52.31;99290.59;1710609;82;20091;-67
2022/03/27 03:22:57;;;;;;;;;;;;;;;0.80;52.07;99288.41;1698473;83;21257;-67
2022/03/27 03:25:29;;;;;;;;;;;;;;;0.75;51.80;99287.83;1737061;82;20084;-67
2022/03/27 03:27:57;;;;;;;;;;;;;;;0.72;52.11;99269.97;1710332;82;20111;-67
2022/03/27 03:30:33;;;;;;;;;;;;;;;0.65;52.41;99302.06;1736621;82;20095;-65
2022/03/27 03:33:01;;;;;;;;;;;;;;;0.58;52.53;99298.76;1741504;81;20099;-66
2022/03/27 03:35:34;;;;;;;;;;;;;;;0.52;52.75;99307.09;1708991;82;20115;-66
2022/03/27 03:38:04;;;;;;;;;;;;;;;0.47;53.15;99316.50;1733397;82;20127;-66
2022/03/27 03:40:38;;;;;;;;;;;;;;;0.39;53.79;99323.71;1716095;82;20431;-66
2022/03/27 03:43:04;;;;;;;;;;;;;;;0.33;54.01;99322.84;1739770;82;20086;-66
2022/03/27 03:45:35;;;;;;;;;;;;;;;0.28;54.43;99335.75;1717108;82;20117;-67
2022/03/27 03:48:08;;;;;;;;;;;;;;;0.24;54.87;99329.77;1673077;84;20123;-65
2022/03/27 03:50:39;;;;;;;;;;;;;;;0.21;59.83;99343.23;1718942;83;20085;-66
2022/03/27 03:53:09;;;;;;;;;;;;;;;0.22;55.84;99354.31;1732110;83;20415;-66
2022/03/27 03:55:41;;;;;;;;;;;;;;;0.17;55.97;99355.61;1733463;83;20175;-68
2022/03/27 03:58:09;;;;;;;;;;;;;;;0.12;56.31;99358.78;1732477;83;20119;-68
2022/03/27 04:00:46;;;;;;;;;;;;;;;0.06;56.83;99361.13;1694369;83;21932;-67
2022/03/27 04:03:14;;;;;;;;;;;;;;;-0.02;57.42;99355.67;1727503;83;20438;-67
2022/03/27 04:05:45;;;;;;;;;;;;;;;-0.06;57.69;99365.34;1706439;83;20143;-69
2022/03/27 04:08:16;;;;;;;;;;;;;;;-0.05;57.83;99368.31;1704879;83;20466;-69
2022/03/27 04:10:46;;;;;;;;;;;;;;;-0.06;57.94;99380.99;1717412;82;20084;-68
2022/03/27 04:13:17;;;;;;;;;;;;;;;-0.07;58.08;99385.29;1719240;82;20531;-68
2022/03/27 04:15:48;;;;;;;;;;;;;;;-0.09;58.41;99374.75;1723664;83;20132;-66
2022/03/27 04:18:20;;;;;;;;;;;;;;;-0.09;58.26;99370.70;1730407;83;20147;-69
2022/03/27 04:21:06;;;;;;;;;;;;;;;-0.09;58.47;99389.59;1730111;83;20116;-66
2022/03/27 04:23:26;;;;;;;;;;;;;;;-0.07;58.30;99386.64;1721567;83;20137;-67
2022/03/27 04:25:59;;;;;;;;;;;;;;;-0.04;58.54;99398.28;1694176;84;21261;-71
2022/03/27 04:28:32;;;;;;;;;;;;;;;-0.05;58.50;99400.70;1700391;84;20139;-65
2022/03/27 04:31:01;;;;;;;;;;;;;;;-0.06;58.39;99405.28;1700038;84;20177;-66
2022/03/27 04:33:33;;;;;;;;;;;;;;;-0.02;58.51;99401.55;1701050;83;20126;-66
2022/03/27 04:35:59;;;;;;;;;;;;;;;0.01;58.20;99409.12;1701265;83;20090;-67
2022/03/27 04:38:29;;;;;;;;;;;;;;;0.04;58.04;99415.90;1701396;84;21249;-68
2022/03/27 04:41:00;;;;;;;;;;;;;;;0.06;57.59;99422.68;1698821;84;20117;-68
2022/03/27 04:43:32;;;;;;;;;;;;;;;0.11;57.57;99427.33;1701075;84;20102;-68
2022/03/27 04:45:58;;;;;;;;;;;;;;;0.16;57.29;99427.39;1682372;84;20441;-69
2022/03/27 04:48:26;;;;;;;;;;;;;;;0.20;57.00;99429.34;1699086;84;20448;-66
2022/03/27 04:50:58;;;;;;;;;;;;;;;0.22;55.92;99431.79;1682504;84;20125;-66
2022/03/27 04:53:36;;;;;;;;;;;;;;;0.26;55.95;99442.38;1701254;83;20102;-67
2022/03/27 04:56:04;;;;;;;;;;;;;;;0.30;55.66;99444.86;1682705;84;20102;-66
2022/03/27 04:58:35;;;;;;;;;;;;;;;0.35;55.44;99448.97;1699448;84;20181;-68
2022/03/27 05:01:07;;;;;;;;;;;;;;;0.41;54.92;99458.77;1698477;84;20098;-68
2022/03/27 05:03:40;;;;;;;;;;;;;;;0.49;54.43;99458.33;1699233;84;20100;-67
2022/03/27 05:06:15;;;;;;;;;;;;;;;0.54;53.76;99450.28;1705720;82;20105;-72
2022/03/27 05:08:44;;;;;;;;;;;;;;;0.58;54.06;99440.58;1734955;82;20119;-68
2022/03/27 05:11:15;;;;;;;;;;;;;;;0.63;54.27;99464.95;1723238;83;20083;-68
2022/03/27 05:13:49;;;;;;;;;;;;;;;0.74;53.72;99470.47;1706547;82;20122;-67
2022/03/27 05:16:16;;;;;;;;;;;;;;;0.89;53.06;99471.45;1683212;84;20135;-68
2022/03/27 05:18:44;;;;;;;;;;;;;;;0.97;52.47;99482.35;1701194;84;20174;-68
2022/03/27 05:21:17;;;;;;;;;;;;;;;0.99;52.05;99482.37;1701856;84;20123;-68
2022/03/27 05:23:49;;;;;;;;;;;;;;;1.03;51.70;99490.80;1683218;84;20142;-70
2022/03/27 05:26:13;;;;;;;;;;;;;;;1.09;52.12;99492.48;1701617;83;20078;-68
2022/03/27 05:28:45;;;;;;;;;;;;;;;1.22;51.68;99489.34;1683735;84;20098;-68
2022/03/27 05:31:15;;;;;;;;;;;;;;;1.33;50.87;99501.07;1700529;84;20455;-67
2022/03/27 05:33:50;;;;;;;;;;;;;;;1.35;50.01;99498.11;1701621;84;20119;-68
2022/03/27 05:36:21;;;;;;;;;;;;;;;1.37;49.50;99484.61;1701216;84;20083;-68
2022/03/27 05:38:49;;;;;;;;;;;;;;;1.39;49.65;99508.70;1701665;84;20159;-67
2022/03/27 05:41:19;;;;;;;;;;;;;;;1.41;49.12;99513.31;1700763;84;21275;-67
2022/03/27 05:43:50;;;;;;;;;;;;;;;1.41;49.30;99514.66;1701641;84;20082;-68
2022/03/27 05:46:18;;;;;;;;;;;;;;;1.40;48.70;99518.44;1695956;83;20166;-68
2022/03/27 05:48:46;;;;;;;;;;;;;;;1.36;48.45;99519.48;1691424;85;20126;-68
2022/03/27 05:51:17;;;;;;;;;;;;;;;1.39;49.04;99521.69;1643564;86;20154;-68
2022/03/27 05:53:45;;;;;;;;;;;;;;;1.48;49.21;99524.74;1662125;86;21305;-68
2022/03/27 05:56:13;;;;;;;;;;;;;;;1.61;48.62;99517.55;1700308;84;20142;-68
2022/03/27 05:58:47;;;;;;;;;;;;;;;1.73;48.43;99526.86;1701261;84;20189;-68
2022/03/27 06:01:14;;;;;;;;;;;;;;;1.78;48.25;99545.28;1691125;84;20522;-67
2022/03/27 06:03:47;;;;;;;;;;;;;;;1.81;48.62;99536.64;1691549;85;20143;-66
2022/03/27 06:06:15;;;;;;;;;;;;;;;1.87;48.56;99542.38;1669926;85;20171;-66
2022/03/27 06:08:43;;;;;;;;;;;;;;;1.83;48.57;99534.49;1691450;85;20462;-67
2022/03/27 06:11:16;;;;;;;;;;;;;;;1.71;49.34;99439.70;1691316;84;20506;-67
2022/03/27 06:13:44;;;;;;;;;;;;;;;1.54;50.20;99560.24;1690519;85;20127;-67
2022/03/27 06:16:16;;;;;;;;;;;;;;;1.43;51.53;99576.09;1689180;84;20461;-68
2022/03/27 06:18:43;;;;;;;;;;;;;;;1.28;55.42;99572.69;1691319;84;21803;-67
2022/03/27 06:21:15;;;;;;;;;;;;;;;1.08;59.39;99605.75;1691379;85;20491;-67
2022/03/27 06:23:48;;;;;;;;;;;;;;;0.79;61.17;99602.94;1671515;85;20473;-67
2022/03/27 06:26:19;;;;;;;;;;;;;;;0.57;62.50;99586.20;1691411;85;20178;-67
2022/03/27 06:28:46;;;;;;;;;;;;;;;0.42;61.14;99598.67;1691044;85;20127;-67
2022/03/27 06:31:16;;;;;;;;;;;;;;;0.37;60.77;99606.70;1689035;85;21180;-66
2022/03/27 06:33:48;;;;;;;;;;;;;;;0.38;58.25;99582.14;1671289;85;20127;-67
2022/03/27 06:36:18;;;;;;;;;;;;;;;0.41;57.95;99595.16;1649864;85;20156;-67
2022/03/27 06:38:53;;;;;;;;;;;;;;;0.46;56.73;99589.00;1690683;84;20123;-66
2022/03/27 06:41:20;;;;;;;;;;;;;;;0.55;56.32;99595.09;1691249;84;20126;-67
2022/03/27 06:43:53;;;;;;;;;;;;;;;0.71;56.35;99604.19;1691829;84;20139;-66
2022/03/27 06:46:21;;;;;;;;;;;;;;;0.99;55.80;99599.15;1670151;84;20078;-65
2022/03/27 06:48:51;;;;;;;;;;;;;;;1.30;52.04;99606.52;1676789;85;20449;-66
2022/03/27 06:51:17;;;;;;;;;;;;;;;1.61;52.54;99600.91;1722933;83;20084;-66
2022/03/27 06:53:47;;;;;;;;;;;;;;;1.87;49.41;99599.76;1704623;83;20116;-66
2022/03/27 06:56:14;;;;;;;;;;;;;;;1.87;49.80;99603.82;1730852;82;21156;-66
2022/03/27 06:58:44;;;;;;;;;;;;;;;1.77;50.50;99619.43;1730212;83;20123;-66
2022/03/27 07:04:03;;;;;;;;;;;;;;;1.53;52.05;99630.30;1728524;83;20427;-69
2022/03/27 07:06:32;;;;;;;;;;;;;;;1.41;51.32;99641.80;1730407;82;20443;-69
2022/03/27 07:09:04;;;;;;;;;;;;;;;1.36;49.47;99634.98;1730636;83;21982;-68
2022/03/27 07:11:37;;;;;;;;;;;;;;;1.43;46.94;99641.02;1730667;82;20127;-67
2022/03/27 07:14:13;;;;;;;;;;;;;;;1.48;46.05;99651.89;1730849;82;20422;-67
2022/03/27 07:16:42;;;;;;;;;;;;;;;1.54;46.08;99648.17;1730590;82;20144;-68
2022/03/27 07:19:14;;;;;;;;;;;;;;;1.63;45.65;99644.77;1729757;83;20091;-67
2022/03/27 07:21:48;;;;;;;;;;;;;;;1.75;46.52;99657.30;1730036;82;20427;-69
2022/03/27 07:24:17;;;;;;;;;;;;;;;2.08;44.16;99671.16;1730829;82;20171;-68
2022/03/27 07:26:55;;;;;;;;;;;;;;;2.56;43.96;99675.06;1730612;83;20438;-66
2022/03/27 07:29:24;;;;;;;;;;;;;;;3.12;43.72;99662.36;1727483;83;20127;-66
2022/03/27 07:31:59;;;;;;;;;;;;;;;3.67;40.83;99674.50;1730840;83;36083;-67
2022/03/27 07:34:30;;;;;;;;;;;;;;;3.90;40.06;99682.16;1727790;83;20100;-66
2022/03/27 07:37:17;;;;;;;;;;;;;;;3.83;38.56;99691.11;1727366;83;20119;-67
2022/03/27 07:39:43;;;;;;;;;;;;;;;3.49;37.58;99664.94;1705684;83;20446;-67
2022/03/27 07:42:13;;;;;;;;;;;;;;;3.03;36.85;99697.84;1729134;83;20455;-66
2022/03/27 07:44:40;;;;;;;;;;;;;;;3.01;38.26;99692.68;1717735;83;20111;-68
2022/03/27 07:47:08;;;;;;;;;;;;;;;3.16;37.90;99698.73;1728720;83;21158;-68
2022/03/27 07:49:38;;;;;;;;;;;;;;;3.19;37.51;99696.85;1723800;83;20119;-67
2022/03/27 07:52:13;;;;;;;;;;;;;;;3.08;38.08;99698.69;1727505;82;20156;-65
2022/03/27 07:54:44;;;;;;;;;;;;;;;2.94;37.89;99691.56;1727593;82;20120;-65
2022/03/27 07:57:10;;;;;;;;;;;;;;;2.69;37.40;99698.19;1726460;82;20096;-68
2022/03/27 07:59:42;;;;;;;;;;;;;;;2.43;38.08;99721.56;1718843;82;20140;-69
2022/03/27 08:02:12;;;;;;;;;;;;;;;2.47;38.74;99712.37;1707648;82;20086;-69
2022/03/27 08:04:38;;;;;;;;;;;;;;;2.55;38.65;99718.14;1716537;83;20096;-73
2022/03/27 08:07:10;;;;;;;;;;;;;;;2.65;38.38;99714.16;1726804;83;20155;-73
2022/03/27 08:09:42;;;;;;;;;;;;;;;2.92;37.80;99716.77;1728957;82;20541;-68
2022/03/27 08:12:17;;;;;;;;;;;;;;;3.40;36.72;99722.19;1726661;82;21245;-70
2022/03/27 08:14:46;;;;;;;;;;;;;;;3.89;35.71;99714.48;1743091;82;20156;-68
2022/03/27 08:17:15;;;;;;;;;;;;;;;4.24;35.44;99723.22;1738454;82;20461;-73
2022/03/27 08:19:43;;;;;;;;;;;;;;;4.53;35.66;99721.62;1741309;82;20080;-71
2022/03/27 08:22:12;;;;;;;;;;;;;;;4.55;34.35;99729.50;1746242;82;20180;-71
2022/03/27 08:24:39;;;;;;;;;;;;;;;4.22;35.29;99730.28;1732741;82;21092;-69
2022/03/27 08:27:08;;;;;;;;;;;;;;;3.82;36.61;99717.45;1720624;81;20444;-70
2022/03/27 08:29:39;;;;;;;;;;;;;;;3.33;37.59;99707.50;1688728;83;20100;-72
2022/03/27 08:32:08;;;;;;;;;;;;;;;3.02;38.63;99745.03;1691111;84;20121;-70
2022/03/27 08:34:37;;;;;;;;;;;;;;;2.93;39.40;99741.45;1671426;85;20172;-71
2022/03/27 08:37:06;;;;;;;;;;;;;;;2.97;39.50;99766.15;1711646;83;21284;-72
2022/03/27 08:39:33;;;;;;;;;;;;;;;2.97;38.61;99748.52;1710732;83;20205;-70
2022/03/27 08:41:59;;;;;;;;;;;;;;;3.09;38.82;99746.44;1723269;83;20129;-71
2022/03/27 08:44:30;;;;;;;;;;;;;;;3.29;38.87;99752.53;1725354;83;20113;-75
2022/03/27 08:46:58;;;;;;;;;;;;;;;3.70;38.93;99739.94;1720541;83;20594;-75
2022/03/27 08:49:42;;;;;;;;;;;;;;;4.08;38.44;99756.34;1715374;83;22079;-71
2022/03/27 08:52:23;;;;;;;;;;;;;;;4.10;37.98;99751.98;1714958;83;20202;-69
2022/03/27 08:55:03;;;;;;;;;;;;;;;3.86;38.48;99753.03;1714730;83;20078;-69
2022/03/27 08:57:39;;;;;;;;;;;;;;;3.49;40.63;99772.14;1700141;83;20128;-68
2022/03/27 09:00:07;;;;;;;;;;;;;;;3.09;42.98;99765.42;1688637;85;20124;-70
2022/03/27 09:02:33;;;;;;;;;;;;;;;3.10;42.77;99768.41;1689072;85;21152;-67
2022/03/27 09:05:06;;;;;;;;;;;;;;;3.13;42.38;99751.61;1688969;85;20434;-69
2022/03/27 09:07:30;;;;;;;;;;;;;;;3.10;43.16;99787.94;1665681;85;20176;-68
2022/03/27 09:09:58;;;;;;;;;;;;;;;3.13;43.49;99774.67;1689080;84;20087;-69
2022/03/27 09:12:26;;;;;;;;;;;;;;;3.20;44.13;99763.05;1689204;85;20096;-69
2022/03/27 09:14:54;;;;;;;;;;;;;;;3.21;44.47;99769.30;1688863;85;20107;-68
2022/03/27 09:17:20;;;;;;;;;;;;;;;3.19;45.24;99788.55;1689121;85;20446;-68
2022/03/27 09:19:52;;;;;;;;;;;;;;;3.22;45.33;99792.09;1689789;85;20434;-68
2022/03/27 09:22:22;;;;;;;;;;;;;;;3.16;44.01;99791.78;1690460;85;20401;-67
2022/03/27 09:24:58;;;;;;;;;;;;;;;3.02;42.05;99766.73;1682974;83;20459;-70
2022/03/27 09:27:33;;;;;;;;;;;;;;;2.82;41.82;99791.82;1667219;85;21245;-67
2022/03/27 09:30:08;;;;;;;;;;;;;;;2.84;42.30;99774.76;1662480;86;20429;-69
2022/03/27 09:32:41;;;;;;;;;;;;;;;3.29;42.70;99780.48;1679755;85;20176;-65
2022/03/27 09:35:11;;;;;;;;;;;;;;;3.82;41.43;99798.92;1692212;83;20152;-69
2022/03/27 09:37:39;;;;;;;;;;;;;;;3.90;38.63;99783.47;1725126;83;20125;-69
2022/03/27 09:40:09;;;;;;;;;;;;;;;3.63;39.50;99782.80;1697097;83;21190;-69
2022/03/27 09:42:37;;;;;;;;;;;;;;;3.61;39.63;99797.19;1697468;83;20142;-69
2022/03/27 09:45:21;;;;;;;;;;;;;;;3.95;38.51;99785.39;1719255;83;20126;-66
2022/03/27 09:47:53;;;;;;;;;;;;;;;4.35;37.47;99771.07;1709196;83;20475;-69
2022/03/27 09:50:35;;;;;;;;;;;;;;;4.51;36.78;99772.73;1710120;84;20158;-67
2022/03/27 09:53:22;;;;;;;;;;;;;;;4.41;36.59;99797.17;1710049;84;21170;-69
2022/03/27 09:56:03;;;;;;;;;;;;;;;4.40;36.29;99800.16;1706694;84;20098;-67
2022/03/27 09:58:35;;;;;;;;;;;;;;;4.38;36.24;99798.26;1687886;84;20435;-68
2022/03/27 10:01:17;;;;;;;;;;;;;;;4.74;35.73;99784.95;1691981;84;20168;-68
2022/03/27 10:03:59;;;;;;;;;;;;;;;5.19;35.40;99796.38;1688080;84;20180;-66
2022/03/27 10:06:36;;;;;;;;;;;;;;;5.21;33.97;99786.00;1694185;84;21244;-66
2022/03/27 10:09:03;;;;;;;;;;;;;;;5.00;33.99;99792.58;1689066;84;20134;-68
2022/03/27 10:11:32;;;;;;;;;;;;;;;5.15;33.74;99763.17;1689575;84;20424;-66
2022/03/27 10:13:59;;;;;;;;;;;;;;;5.50;33.10;99779.95;1692905;84;20123;-68
2022/03/27 10:16:30;;;;;;;;;;;;;;;5.67;32.34;99784.53;1692831;84;20158;-68
2022/03/27 10:19:06;;;;;;;;;;;;;;;5.70;33.25;99788.06;1692542;84;21126;-66
2022/03/27 10:21:33;;;;;;;;;;;;;;;5.67;32.63;99795.43;1694327;84;20142;-69
2022/03/27 10:24:15;;;;;;;;;;;;;;;5.69;33.54;99782.34;1690831;84;20091;-68
2022/03/27 10:26:43;;;;;;;;;;;;;;;5.61;33.68;99799.27;1690553;84;20173;-68
2022/03/27 10:29:11;;;;;;;;;;;;;;;5.73;33.29;99807.94;1692424;84;20177;-69
2022/03/27 10:31:38;;;;;;;;;;;;;;;5.66;33.01;99796.52;1689396;84;21278;-66
2022/03/27 10:34:08;;;;;;;;;;;;;;;5.70;33.48;99803.59;1692965;84;20126;-67
2022/03/27 10:36:59;;;;;;;;;;;;;;;5.74;33.36;99794.59;1694049;84;20179;-66
2022/03/27 10:39:32;;;;;;;;;;;;;;;5.62;33.80;99784.55;1693257;84;20165;-67
2022/03/27 10:42:26;;;;;;;;;;;;;;;5.64;34.31;99804.16;1675365;84;20195;-69
2022/03/27 10:45:08;;;;;;;;;;;;;;;5.66;34.82;99799.24;1694006;84;21835;-66
2022/03/27 10:47:35;;;;;;;;;;;;;;;5.83;34.71;99798.34;1683796;83;20166;-68
2022/03/27 10:50:05;;;;;;;;;;;;;;;5.83;32.78;99791.53;1698242;83;20102;-67
2022/03/27 10:52:36;;;;;;;;;;;;;;;5.93;33.04;99787.44;1692886;85;20756;-67
2022/03/27 12:46:22;;;;;;;8.23;0.93;;;;;;;7.83;25.33;99808.24;1791792;79;26159;-66
2022/03/27 12:49:05;;;;;;;4.50;1.05;;;;;;;7.87;25.15;99813.39;1758418;81;20977;-65
2022/03/27 12:51:32;;;;;;;4.80;1.00;;;;;;;7.87;25.31;99784.69;1755294;81;21111;-66
2022/03/27 12:54:09;;;;;;;5.80;1.30;;;;;;;7.70;26.19;99813.03;1752173;81;21067;-67
2022/03/27 12:56:55;;;;;;;18.02;1.75;;;;;;;7.55;26.42;99808.55;1752568;80;20988;-66
2022/03/27 12:59:23;;;;;;;16.50;3.02;;;;;;;7.29;25.79;99822.22;1756257;80;20892;-66
2022/03/27 13:01:50;;;;;;;5.25;1.10;;;;;;;6.96;26.70;99808.84;1752980;81;21569;-69
2022/03/27 13:04:17;;;;;;;8.95;1.37;;;;;;;6.90;26.89;99794.45;1688976;81;21241;-69
2022/03/27 13:06:58;;;;;;;3.05;0.82;;;;;;;7.27;26.89;99785.64;1754923;81;20869;-69
2022/03/27 13:09:24;;;;;;;10.20;1.00;;;;;;;7.68;25.53;99790.65;1751556;81;21574;-70
2022/03/27 13:11:52;;;;;;;9.95;1.05;;;;;;;7.99;26.28;99809.43;1749329;81;21017;-72
2022/03/27 13:14:19;;;;;;;13.60;1.62;;;;;;;8.23;26.00;99796.52;1755523;80;20869;-73
2022/03/27 13:16:52;;;;;;;13.50;1.42;;;;;;;8.25;26.36;99803.87;1698824;83;22045;-73
2022/03/27 13:19:26;;;;;;;7.90;1.20;;;;;;;8.20;25.95;99796.55;1667362;84;20980;-72
2022/03/27 13:21:57;;;;;;;13.43;1.27;;;;;;;8.03;25.97;99792.70;1662892;84;21535;-74
2022/03/27 13:24:31;;;;;;;8.70;1.27;;;;;;;8.05;26.33;99816.47;1698218;84;21405;-71
2022/03/27 13:27:05;;;;;;;15.23;1.32;;;;;;;8.00;26.04;99807.77;1697040;83;20953;-71
2022/03/27 13:29:33;;;;;;;17.10;1.12;;;;;;;7.99;26.41;99808.06;1697786;84;21862;-73
2022/03/27 13:32:01;;;;;;;8.30;1.77;;;;;;;8.05;26.08;99791.86;1698831;84;20905;-72
2022/03/27 13:34:29;;;;;;;6.62;1.77;;;;;;;8.16;26.60;99787.86;1748285;81;20913;-71
2022/03/27 13:36:59;;;;;;;14.07;3.05;;;;;;;8.36;26.40;99820.44;1748908;81;21037;-69
2022/03/27 13:39:26;;;;;;;11.18;3.35;;;;;;;8.58;25.65;99786.47;1744394;81;20920;-70
2022/03/27 13:44:39;;;;;;;11.08;1.87;;;;;;;8.44;26.49;99788.31;1757416;80;20928;-72
2022/03/27 13:47:09;;;;;;;14.55;1.87;;;;;;;8.78;26.56;99834.59;1711716;82;21010;-72
2022/03/27 13:49:37;;;;;;;18.45;3.22;;;;;;;8.96;26.19;99811.60;1734207;81;21051;-67
2022/03/27 13:52:06;;;;;;;17.48;1.57;;;;;;;8.92;25.38;99727.32;1714347;82;20905;-70
2022/03/27 13:54:34;;;;;;;11.35;1.75;;;;;;;8.77;25.26;99779.59;1759804;81;21762;-69
2022/03/27 13:57:04;;;;;;;11.83;1.75;;;;;;;8.70;25.69;99822.12;1758990;81;20974;-69
2022/03/27 13:59:31;;;;;;;10.82;1.85;;;;;;;8.78;25.28;99825.01;1756086;81;21597;-68
2022/03/27 14:01:59;;;;;;;12.68;1.60;;;;;;;8.84;24.73;99839.44;1760525;81;20929;-68
2022/03/27 14:04:28;;;;;;;12.98;1.02;;;;;;;8.80;24.98;99835.66;1712845;83;21205;-68
2022/03/27 14:06:59;;;;;;;14.90;2.05;;;;;;;8.55;24.65;99830.84;1750248;80;21538;-68
2022/03/27 14:09:27;;;;;;;16.30;1.77;;;;;;;8.28;24.31;99832.00;1757651;81;20847;-67
2022/03/27 14:12:12;;;;;;;15.40;1.60;;;;;;;8.47;25.37;99837.53;1762410;81;21008;-69
2022/03/27 14:14:41;;;;;;;13.18;2.02;;;;;;;8.80;24.05;99835.66;1711791;83;20995;-70
2022/03/27 14:17:08;;;;;;;14.93;2.83;;;;;;;8.86;23.89;99830.38;1692425;84;21058;-70
2022/03/27 14:19:38;;;;;;;12.30;1.62;;;;;;;9.01;23.39;99829.32;1684786;83;20990;-69
2022/03/27 14:22:07;;;;;;;10.48;2.77;;;;;;;9.09;23.57;99847.25;1698850;83;21121;-70
2022/03/27 14:24:35;;;;;;;11.30;1.55;;;;;;;8.99;23.33;99839.76;1758238;81;20953;-75
2022/03/27 14:27:05;;;;;;;12.58;1.45;;;;;;;8.92;24.01;99832.73;1752514;81;21026;-74
2022/03/27 14:29:33;;;;;;;4.67;1.37;;;;;;;9.10;24.04;99839.30;1711435;82;20897;-79
2022/03/27 14:32:00;;;;;;;4.55;0.95;;;;;;;9.16;23.87;99846.32;1684242;84;22170;-70
2022/03/27 14:34:27;;;;;;;13.30;1.90;;;;;;;9.13;24.22;99851.02;1756688;81;20936;-72
2022/03/27 14:36:56;;;;;;;9.75;2.02;;;;;;;8.97;24.30;99857.04;1712701;82;20983;-72
2022/03/27 14:39:25;;;;;;;6.37;1.25;;;;;;;8.80;24.98;99851.53;1675285;84;21572;-70
2022/03/27 14:41:52;;;;;;;3.85;1.15;;;;;;;8.72;25.04;99839.06;1695203;83;20909;-70
2022/03/27 14:44:20;;;;;;;9.63;1.77;;;;;;;8.48;24.87;99846.81;1731148;81;21254;-70
2022/03/27 14:46:48;;;;;;;7.30;1.25;;;;;;;8.23;25.20;99848.48;1734538;80;21124;-70
2022/03/27 14:49:17;;;;;;;6.03;1.70;;;;;;;7.90;27.15;99857.09;1766346;80;20928;-70
2022/03/27 14:51:44;;;;;;;11.48;1.82;;;;;;;7.57;26.21;99861.53;1755366;80;21047;-70
2022/03/27 14:56:58;;;;;;;7.78;1.55;;;;;;;6.61;27.67;99871.33;1731344;81;21276;-71
2022/03/27 14:59:25;;;;;;;19.15;1.67;;;;;;;6.28;28.28;99883.78;1711938;82;20984;-70
2022/03/27 15:01:53;;;;;;;10.05;1.90;;;;;;;6.19;28.10;99894.45;1675884;84;21158;-71